Time;durP1;ratioP1;P1;durP2;ratioP2;P2;SDS_P1;SDS_P2;PMS_P1;PMS_P2;Temp;Humidity;BMP_temperature;BMP_pressure;BME280_temperature;BME280_humidity;BME280_pressure;Samples;Min_cycle;Max_cycle;Signal;HPM_P1;HPM_P2
2023/06/22 01:48:08;;;;;;;1.80;1.45;;;;;;;;;;7396162;19;20153;-90
2023/06/22 01:50:35;;;;;;;0.50;0.50;;;;;;;;;;7394505;19;20137;-89
2023/06/22 01:53:01;;;;;;;0.93;0.88;;;;;;;;;;7393919;19;20169;-90
2023/06/22 01:55:28;;;;;;;1.42;1.33;;;;;;;;;;7392709;19;20121;-90
2023/06/22 01:57:55;;;;;;;1.58;1.48;;;;;;;;;;7395636;19;20133;-90
2023/06/22 02:00:24;;;;;;;2.05;1.48;;;;;;;;;;7393410;19;20137;-90
2023/06/22 02:02:59;;;;;;;0.90;0.90;;;;;;;;;;7392420;19;20141;-90
2023/06/22 02:05:37;;;;;;;1.85;1.20;;;;;;;;;;7410670;19;20136;-91
2023/06/22 02:08:09;;;;;;;0.80;0.80;;;;;;;;;;7422807;19;20143;-93
2023/06/22 02:10:37;;;;;;;3.05;1.17;;;;;;;;;;7424124;19;20132;-94
2023/06/22 02:13:06;;;;;;;0.90;0.85;;;;;;;;;;7398970;19;20169;-93
2023/06/22 02:15:33;;;;;;;1.35;1.30;;;;;;;;;;7394031;19;20506;-93
2023/06/22 02:18:00;;;;;;;1.13;1.08;;;;;;;;;;7394889;19;20129;-93
2023/06/22 02:20:27;;;;;;;1.08;1.08;;;;;;;;;;7396244;19;20149;-93
2023/06/22 02:22:54;;;;;;;4.65;1.17;;;;;;;;;;7394186;19;20511;-92
2023/06/22 02:25:21;;;;;;;0.95;0.95;;;;;;;;;;7396490;19;20132;-93
2023/06/22 02:27:48;;;;;;;1.52;1.42;;;;;;;;;;7394378;19;20212;-93
2023/06/22 02:30:15;;;;;;;1.52;1.42;;;;;;;;;;7412270;19;20121;-93
2023/06/22 02:32:43;;;;;;;1.35;1.17;;;;;;;;;;7427829;19;20158;-93
2023/06/22 02:35:10;;;;;;;1.05;0.90;;;;;;;;;;7425912;19;20145;-93
2023/06/22 02:37:41;;;;;;;0.80;0.80;;;;;;;;;;7408057;19;20518;-92
2023/06/22 02:40:09;;;;;;;1.00;1.00;;;;;;;;;;7393917;19;20460;-93
2023/06/22 02:42:36;;;;;;;0.57;0.52;;;;;;;;;;7389237;19;20154;-93
2023/06/22 02:45:04;;;;;;;1.38;1.27;;;;;;;;;;7399863;19;20200;-94
2023/06/22 02:47:30;;;;;;;1.13;1.08;;;;;;;;;;7408294;19;20149;-93
2023/06/22 02:49:57;;;;;;;0.80;0.80;;;;;;;;;;7407134;19;20165;-94
2023/06/22 02:52:24;;;;;;;0.60;0.60;;;;;;;;;;7396975;19;20145;-94
2023/06/22 02:54:50;;;;;;;0.90;0.90;;;;;;;;;;7398900;19;20162;-91
2023/06/22 02:57:17;;;;;;;0.82;0.82;;;;;;;;;;7395925;19;20129;-94
2023/06/22 02:59:44;;;;;;;0.90;0.90;;;;;;;;;;7394951;19;20192;-94
2023/06/22 03:02:11;;;;;;;0.80;0.80;;;;;;;;;;7398533;19;20139;-95
2023/06/22 03:04:37;;;;;;;0.93;0.93;;;;;;;;;;7400001;19;20678;-94
2023/06/22 03:07:04;;;;;;;0.80;0.80;;;;;;;;;;7395227;19;20144;-93
2023/06/22 03:09:33;;;;;;;0.70;0.70;;;;;;;;;;7393732;19;20141;-93
2023/06/22 03:11:59;;;;;;;0.70;0.70;;;;;;;;;;7393066;19;20141;-93
2023/06/22 03:14:26;;;;;;;0.95;0.95;;;;;;;;;;7393569;19;20570;-93
2023/06/22 03:16:53;;;;;;;1.00;1.00;;;;;;;;;;7391640;19;20133;-92
2023/06/22 03:19:22;;;;;;;2.83;0.93;;;;;;;;;;7393995;19;20148;-93
2023/06/22 03:21:49;;;;;;;1.63;0.98;;;;;;;;;;7392309;19;20144;-93
2023/06/22 03:24:16;;;;;;;0.80;0.80;;;;;;;;;;7392357;19;20182;-93
2023/06/22 03:26:42;;;;;;;0.40;0.40;;;;;;;;;;7390463;19;20144;-93
2023/06/22 03:29:09;;;;;;;1.35;1.33;;;;;;;;;;7389502;19;20650;-94
2023/06/22 03:31:35;;;;;;;1.38;1.30;;;;;;;;;;7392769;19;20117;-93
2023/06/22 03:34:02;;;;;;;0.85;0.85;;;;;;;;;;7391520;19;20184;-93
2023/06/22 03:36:29;;;;;;;4.45;1.10;;;;;;;;;;7393690;19;20513;-93
2023/06/22 03:38:56;;;;;;;1.52;1.42;;;;;;;;;;7394113;19;20129;-93
2023/06/22 03:41:22;;;;;;;1.33;1.23;;;;;;;;;;7390626;19;20148;-93
2023/06/22 03:43:49;;;;;;;4.43;1.15;;;;;;;;;;7391641;19;20148;-93
2023/06/22 03:46:16;;;;;;;0.85;0.85;;;;;;;;;;7386499;19;20135;-93
2023/06/22 03:48:42;;;;;;;1.55;1.00;;;;;;;;;;7387963;19;20145;-92
2023/06/22 03:51:09;;;;;;;0.98;0.98;;;;;;;;;;7389812;19;20196;-93
2023/06/22 03:53:36;;;;;;;1.55;1.25;;;;;;;;;;7393444;19;20163;-93
2023/06/22 03:56:03;;;;;;;1.50;1.40;;;;;;;;;;7392596;19;20133;-93
2023/06/22 03:58:32;;;;;;;1.00;1.00;;;;;;;;;;7395224;19;20144;-93
2023/06/22 04:00:59;;;;;;;0.77;0.77;;;;;;;;;;7393262;19;20603;-93
2023/06/22 04:03:26;;;;;;;0.57;0.57;;;;;;;;;;7393734;19;20145;-92
2023/06/22 04:05:53;;;;;;;0.77;0.77;;;;;;;;;;7400290;19;20128;-92
2023/06/22 04:08:20;;;;;;;1.08;1.08;;;;;;;;;;7398112;19;20168;-93
2023/06/22 04:10:46;;;;;;;0.57;0.57;;;;;;;;;;7400019;19;20141;-93
2023/06/22 04:13:13;;;;;;;3.92;1.60;;;;;;;;;;7397567;19;20508;-93
2023/06/22 04:15:40;;;;;;;1.90;1.80;;;;;;;;;;7404068;19;20215;-92
2023/06/22 04:18:06;;;;;;;4.00;1.25;;;;;;;;;;7405938;19;20133;-94
2023/06/22 04:20:33;;;;;;;1.48;1.38;;;;;;;;;;7404972;19;20147;-93
2023/06/22 04:23:00;;;;;;;1.40;1.25;;;;;;;;;;7399392;19;20172;-94
2023/06/22 04:25:27;;;;;;;0.82;0.82;;;;;;;;;;7399826;19;20140;-94
2023/06/22 04:27:54;;;;;;;2.90;1.63;;;;;;;;;;7406511;19;20141;-94
2023/06/22 04:30:20;;;;;;;1.02;0.95;;;;;;;;;;7411153;19;20132;-94
2023/06/22 04:32:56;;;;;;;1.63;1.20;;;;;;;;;;7404644;19;20152;-94
2023/06/22 04:35:26;;;;;;;1.75;1.65;;;;;;;;;;7408978;19;20601;-94
2023/06/22 04:37:54;;;;;;;0.93;0.93;;;;;;;;;;7401648;19;20604;-93
2023/06/22 04:40:24;;;;;;;0.57;0.57;;;;;;;;;;7402040;19;20148;-93
2023/06/22 04:42:52;;;;;;;5.88;1.48;;;;;;;;;;7399628;19;20140;-93
2023/06/22 04:45:20;;;;;;;0.88;0.80;;;;;;;;;;7402001;19;20137;-94
2023/06/22 04:47:47;;;;;;;1.58;1.48;;;;;;;;;;7398387;19;20504;-94
2023/06/22 04:50:15;;;;;;;2.80;1.48;;;;;;;;;;7395823;19;20159;-93
2023/06/22 04:52:41;;;;;;;1.00;1.00;;;;;;;;;;7401840;19;20617;-93
2023/06/22 04:55:08;;;;;;;1.02;1.02;;;;;;;;;;7399370;19;20141;-94
2023/06/22 04:57:35;;;;;;;1.48;1.40;;;;;;;;;;7398125;19;20480;-95
2023/06/22 05:00:12;;;;;;;1.67;1.45;;;;;;;;;;7398693;19;20141;-94
2023/06/22 05:02:39;;;;;;;1.13;1.13;;;;;;;;;;7401901;19;20152;-93
2023/06/22 05:05:07;;;;;;;0.80;0.80;;;;;;;;;;7402803;19;20136;-94
2023/06/22 05:07:34;;;;;;;2.83;2.13;;;;;;;;;;7402071;19;20144;-94
2023/06/22 05:10:07;;;;;;;0.98;0.98;;;;;;;;;;7398710;19;20204;-94
2023/06/22 05:12:39;;;;;;;1.42;1.33;;;;;;;;;;7396691;19;20145;-94
2023/06/22 05:15:09;;;;;;;1.40;1.30;;;;;;;;;;7396644;19;20164;-94
2023/06/22 05:17:42;;;;;;;1.25;1.17;;;;;;;;;;7394247;19;20137;-94
2023/06/22 05:20:11;;;;;;;1.63;1.52;;;;;;;;;;7399193;19;20152;-93
2023/06/22 05:22:40;;;;;;;1.38;1.27;;;;;;;;;;7400229;19;20189;-93
2023/06/22 05:25:09;;;;;;;0.80;0.80;;;;;;;;;;7398667;19;20565;-94
2023/06/22 05:27:40;;;;;;;0.88;0.88;;;;;;;;;;7401995;19;20137;-93
2023/06/22 05:30:20;;;;;;;1.50;0.95;;;;;;;;;;7401892;19;20497;-95
2023/06/22 05:32:55;;;;;;;1.13;1.13;;;;;;;;;;7402122;19;20160;-94
2023/06/22 05:35:24;;;;;;;0.68;0.68;;;;;;;;;;7399491;19;20579;-94
2023/06/22 05:37:51;;;;;;;2.15;1.77;;;;;;;;;;7408422;19;20133;-94
2023/06/22 05:40:27;;;;;;;1.45;1.35;;;;;;;;;;7404780;19;20145;-95
2023/06/22 05:43:00;;;;;;;3.33;1.67;;;;;;;;;;7402570;19;20144;-95
2023/06/22 05:46:44;;;;;;;;;;;;;;;;;;;;;
2023/06/22 05:49:56;;;;;;;1.27;1.20;;;;;;;;;;7394466;19;20153;-94
2023/06/22 06:44:27;;;;;;;1.42;1.33;;;;;;;;;;7398547;19;20180;-90
2023/06/22 06:46:54;;;;;;;2.10;1.60;;;;;;;;;;7395436;19;20140;-90
2023/06/22 06:49:21;;;;;;;1.27;1.17;;;;;;;;;;7394326;19;20585;-90
2023/06/22 06:51:48;;;;;;;1.13;1.13;;;;;;;;;;7395303;19;20586;-90
2023/06/22 06:54:15;;;;;;;1.20;1.17;;;;;;;;;;7398195;19;20156;-91
2023/06/22 06:56:47;;;;;;;1.13;1.02;;;;;;;;;;7399628;19;20221;-91
2023/06/22 06:59:15;;;;;;;2.78;1.42;;;;;;;;;;7400451;19;20614;-90
2023/06/22 07:01:44;;;;;;;2.80;1.17;;;;;;;;;;7411398;19;20147;-91
2023/06/22 07:04:11;;;;;;;1.67;1.50;;;;;;;;;;7427278;19;20145;-91
2023/06/22 07:06:38;;;;;;;0.93;0.93;;;;;;;;;;7427870;19;20150;-90
2023/06/22 07:09:05;;;;;;;2.40;1.88;;;;;;;;;;7429109;19;20141;-91
2023/06/22 07:11:33;;;;;;;1.85;1.75;;;;;;;;;;7429352;19;20161;-90
2023/06/22 07:14:01;;;;;;;2.25;2.10;;;;;;;;;;7428551;19;20177;-91
2023/06/22 07:16:28;;;;;;;1.38;1.27;;;;;;;;;;7428260;19;20145;-90
2023/06/22 07:18:55;;;;;;;9.40;2.35;;;;;;;;;;7425975;19;20145;-89
2023/06/22 07:21:22;;;;;;;1.40;1.30;;;;;;;;;;7427797;19;20129;-90
2023/06/22 07:23:48;;;;;;;1.42;1.33;;;;;;;;;;7428739;19;20153;-88
2023/06/22 07:26:16;;;;;;;2.65;1.50;;;;;;;;;;7424299;19;20597;-91
2023/06/22 07:28:42;;;;;;;2.83;2.47;;;;;;;;;;7394102;19;20145;-89
2023/06/22 07:31:09;;;;;;;1.58;1.15;;;;;;;;;;7391308;19;20144;-91
2023/06/22 07:33:36;;;;;;;1.17;1.08;;;;;;;;;;7396631;19;20164;-91
2023/06/22 07:36:07;;;;;;;1.45;1.35;;;;;;;;;;7393631;19;20141;-92
2023/06/22 07:38:35;;;;;;;1.15;1.13;;;;;;;;;;7392415;19;20152;-92
2023/06/22 07:41:05;;;;;;;1.65;1.55;;;;;;;;;;7393835;19;20137;-91
2023/06/22 07:43:34;;;;;;;1.85;1.75;;;;;;;;;;7406371;19;20149;-91
2023/06/22 07:46:01;;;;;;;1.40;1.30;;;;;;;;;;7424130;19;20144;-89
2023/06/22 07:48:27;;;;;;;2.38;1.70;;;;;;;;;;7422320;19;20184;-90
2023/06/22 07:50:54;;;;;;;1.42;1.23;;;;;;;;;;7405442;19;20689;-91
2023/06/22 07:53:22;;;;;;;1.30;1.20;;;;;;;;;;7394026;19;20224;-91
2023/06/22 07:55:50;;;;;;;1.30;1.25;;;;;;;;;;7393677;19;20144;-91
2023/06/22 07:58:18;;;;;;;3.88;1.02;;;;;;;;;;7393243;19;20143;-91
2023/06/22 08:00:45;;;;;;;1.00;1.00;;;;;;;;;;7390868;19;20158;-91
2023/06/22 08:03:13;;;;;;;0.98;0.98;;;;;;;;;;7394503;19;20157;-91
2023/06/22 08:05:40;;;;;;;0.80;0.80;;;;;;;;;;7394387;19;20144;-91
2023/06/22 08:08:07;;;;;;;1.70;1.60;;;;;;;;;;7394191;19;20200;-91
2023/06/22 08:10:34;;;;;;;1.73;1.63;;;;;;;;;;7391104;19;20136;-91
2023/06/22 08:13:00;;;;;;;1.30;1.20;;;;;;;;;;7393011;19;20178;-91
2023/06/22 08:15:27;;;;;;;1.25;1.15;;;;;;;;;;7393000;19;20155;-92
2023/06/22 08:17:55;;;;;;;1.88;1.42;;;;;;;;;;7394861;19;20140;-92
2023/06/22 08:20:22;;;;;;;1.20;1.10;;;;;;;;;;7392554;19;20205;-92
2023/06/22 08:22:48;;;;;;;1.05;1.05;;;;;;;;;;7392593;19;20125;-92
2023/06/22 08:25:15;;;;;;;1.73;1.25;;;;;;;;;;7393223;19;20141;-91
2023/06/22 08:27:46;;;;;;;2.03;1.83;;;;;;;;;;7390774;19;20172;-91
2023/06/22 08:30:13;;;;;;;1.50;1.40;;;;;;;;;;7388827;19;20151;-91
2023/06/22 08:32:39;;;;;;;1.40;1.25;;;;;;;;;;7393036;19;20613;-91
2023/06/22 08:35:08;;;;;;;1.13;1.02;;;;;;;;;;7392689;19;20196;-92
2023/06/22 08:37:35;;;;;;;16.08;1.25;;;;;;;;;;7392379;19;20146;-92
2023/06/22 08:40:05;;;;;;;0.82;0.82;;;;;;;;;;7396782;19;20164;-91
2023/06/22 08:42:32;;;;;;;0.98;0.98;;;;;;;;;;7390340;19;20148;-90
2023/06/22 08:44:58;;;;;;;1.30;1.30;;;;;;;;;;7391717;19;20153;-91
2023/06/22 08:47:25;;;;;;;0.50;0.50;;;;;;;;;;7392640;19;20249;-92
2023/06/22 08:49:52;;;;;;;3.13;1.65;;;;;;;;;;7392125;19;20129;-91
2023/06/22 08:52:19;;;;;;;1.42;1.33;;;;;;;;;;7401353;19;20475;-90
2023/06/22 08:54:47;;;;;;;2.00;1.83;;;;;;;;;;7397970;19;20161;-91
2023/06/22 08:57:14;;;;;;;0.88;0.88;;;;;;;;;;7400665;19;20488;-91
2023/06/22 08:59:40;;;;;;;0.95;0.95;;;;;;;;;;7404678;19;20598;-92
2023/06/22 09:02:07;;;;;;;1.80;1.70;;;;;;;;;;7400716;19;20125;-92
2023/06/22 09:04:34;;;;;;;1.13;1.13;;;;;;;;;;7399654;19;20626;-92
2023/06/22 09:07:02;;;;;;;0.70;0.70;;;;;;;;;;7400874;19;20602;-91
2023/06/22 09:09:29;;;;;;;0.77;0.77;;;;;;;;;;7400397;19;20192;-92
2023/06/22 09:11:55;;;;;;;1.20;1.20;;;;;;;;;;7396388;19;20145;-92
2023/06/22 09:14:22;;;;;;;1.80;1.70;;;;;;;;;;7398159;19;20155;-92
2023/06/22 09:16:49;;;;;;;2.30;0.90;;;;;;;;;;7400851;19;20147;-91
2023/06/22 09:19:15;;;;;;;1.40;1.33;;;;;;;;;;7401278;19;20141;-91
2023/06/22 09:21:42;;;;;;;1.85;0.98;;;;;;;;;;7399918;19;21068;-91
2023/06/22 09:24:09;;;;;;;1.15;1.15;;;;;;;;;;7400354;19;20171;-90
2023/06/22 09:26:35;;;;;;;0.90;0.82;;;;;;;;;;7403498;19;20144;-91
2023/06/22 09:29:05;;;;;;;1.58;1.48;;;;;;;;;;7402553;19;20148;-91
2023/06/22 09:31:32;;;;;;;3.15;1.40;;;;;;;;;;7396105;19;20141;-91
2023/06/22 09:33:59;;;;;;;1.08;0.98;;;;;;;;;;7398313;19;20232;-91
2023/06/22 09:36:25;;;;;;;4.47;1.50;;;;;;;;;;7398220;19;20160;-91
2023/06/22 09:38:55;;;;;;;1.88;1.25;;;;;;;;;;7398625;19;20150;-91
2023/06/22 09:41:22;;;;;;;0.82;0.82;;;;;;;;;;7395690;19;20139;-92
2023/06/22 09:43:49;;;;;;;0.82;0.73;;;;;;;;;;7397766;19;20171;-91
2023/06/22 09:46:16;;;;;;;1.77;1.60;;;;;;;;;;7396227;19;20137;-92
2023/06/22 09:48:43;;;;;;;1.20;1.20;;;;;;;;;;7394397;19;20559;-92
2023/06/22 09:51:11;;;;;;;1.08;1.08;;;;;;;;;;7394937;19;20144;-93
2023/06/22 09:53:38;;;;;;;1.05;1.05;;;;;;;;;;7398242;19;20244;-91
2023/06/22 09:56:06;;;;;;;0.98;0.98;;;;;;;;;;7397710;19;20645;-92
2023/06/22 09:58:33;;;;;;;0.80;0.80;;;;;;;;;;7395427;19;20136;-92
2023/06/22 10:00:59;;;;;;;1.35;1.25;;;;;;;;;;7394103;19;20503;-91
2023/06/22 10:03:26;;;;;;;1.60;1.50;;;;;;;;;;7396996;19;20173;-91
2023/06/22 10:05:53;;;;;;;0.70;0.70;;;;;;;;;;7398232;19;20181;-91
2023/06/22 10:08:20;;;;;;;1.70;1.52;;;;;;;;;;7399580;19;20141;-93
2023/06/22 10:10:46;;;;;;;1.27;1.17;;;;;;;;;;7396134;19;20144;-92
2023/06/22 10:13:14;;;;;;;0.95;0.95;;;;;;;;;;7397106;19;20257;-93
2023/06/22 10:15:42;;;;;;;1.27;1.08;;;;;;;;;;7398027;19;20193;-92
2023/06/22 10:18:09;;;;;;;1.33;1.30;;;;;;;;;;7396664;19;20196;-93
2023/06/22 10:20:36;;;;;;;1.33;1.05;;;;;;;;;;7396778;19;20133;-93
2023/06/22 10:23:02;;;;;;;1.65;1.55;;;;;;;;;;7396333;19;20162;-92
2023/06/22 10:25:29;;;;;;;1.33;1.25;;;;;;;;;;7396801;19;20137;-92
2023/06/22 10:27:59;;;;;;;2.25;1.10;;;;;;;;;;7396724;19;20141;-92
2023/06/22 10:30:25;;;;;;;1.30;1.20;;;;;;;;;;7395360;19;20152;-92
2023/06/22 10:32:52;;;;;;;1.73;1.48;;;;;;;;;;7395614;19;20125;-92
2023/06/22 10:35:19;;;;;;;1.25;1.15;;;;;;;;;;7395469;19;20610;-91
2023/06/22 10:37:46;;;;;;;2.67;1.35;;;;;;;;;;7399142;19;20147;-91
2023/06/22 10:40:16;;;;;;;0.73;0.73;;;;;;;;;;7397174;19;20182;-91
2023/06/22 10:42:43;;;;;;;1.02;1.02;;;;;;;;;;7396580;19;20144;-91
2023/06/22 10:45:10;;;;;;;1.02;1.02;;;;;;;;;;7395595;19;20158;-91
2023/06/22 10:47:37;;;;;;;0.82;0.82;;;;;;;;;;7395772;19;20589;-91
2023/06/22 10:50:05;;;;;;;1.17;1.17;;;;;;;;;;7395931;19;20137;-91
2023/06/22 10:52:32;;;;;;;1.70;1.60;;;;;;;;;;7396026;19;20141;-92
2023/06/22 10:54:58;;;;;;;1.50;1.40;;;;;;;;;;7395048;19;20173;-90
2023/06/22 10:57:25;;;;;;;1.92;1.80;;;;;;;;;;7395377;19;20653;-92
2023/06/22 10:59:52;;;;;;;1.80;1.70;;;;;;;;;;7396615;19;20202;-91
2023/06/22 11:02:19;;;;;;;2.05;1.55;;;;;;;;;;7396104;19;20589;-92
2023/06/22 11:04:47;;;;;;;0.95;0.95;;;;;;;;;;7393954;19;20175;-92
2023/06/22 11:07:15;;;;;;;1.95;1.23;;;;;;;;;;7393723;19;20137;-91
2023/06/22 11:09:45;;;;;;;3.35;2.25;;;;;;;;;;7394394;19;20144;-93
2023/06/22 11:12:12;;;;;;;1.23;1.23;;;;;;;;;;7395966;19;20136;-92
2023/06/22 11:14:39;;;;;;;0.95;0.95;;;;;;;;;;7392663;19;20179;-91
2023/06/22 11:17:05;;;;;;;1.13;1.10;;;;;;;;;;7393273;19;20133;-92
2023/06/22 11:19:32;;;;;;;1.30;1.20;;;;;;;;;;7395542;19;20173;-93
2023/06/22 11:21:59;;;;;;;2.10;1.83;;;;;;;;;;7394087;19;20410;-93
2023/06/22 11:24:27;;;;;;;1.77;1.67;;;;;;;;;;7393297;19;20208;-93
2023/06/22 11:26:54;;;;;;;2.10;1.58;;;;;;;;;;7396246;19;20143;-92
2023/06/22 11:29:22;;;;;;;0.88;0.77;;;;;;;;;;7396513;19;20133;-91
2023/06/22 11:32:03;;;;;;;2.08;1.42;;;;;;;;;;7395250;19;20133;-92
2023/06/22 11:34:30;;;;;;;1.35;1.25;;;;;;;;;;7392784;19;20180;-92
2023/06/22 11:36:56;;;;;;;0.80;0.80;;;;;;;;;;7396177;19;20137;-92
2023/06/22 11:39:23;;;;;;;1.38;1.27;;;;;;;;;;7402992;19;20554;-91
2023/06/22 11:42:09;;;;;;;1.33;1.23;;;;;;;;;;7395419;19;20141;-91
2023/06/22 11:44:36;;;;;;;1.02;1.02;;;;;;;;;;7389837;19;20157;-92
2023/06/22 11:47:04;;;;;;;1.15;1.05;;;;;;;;;;7393799;19;20136;-92
2023/06/22 11:49:31;;;;;;;2.60;1.67;;;;;;;;;;7394246;19;20509;-92
2023/06/22 11:51:58;;;;;;;1.13;1.13;;;;;;;;;;7390858;19;20148;-93
2023/06/22 11:54:24;;;;;;;0.90;0.90;;;;;;;;;;7393306;19;20162;-92
2023/06/22 11:56:51;;;;;;;2.58;2.38;;;;;;;;;;7392196;19;20137;-92
2023/06/22 11:59:18;;;;;;;1.38;1.27;;;;;;;;;;7396592;19;20141;-93
2023/06/22 12:01:46;;;;;;;2.15;1.65;;;;;;;;;;7395199;19;20220;-92
2023/06/22 12:04:14;;;;;;;1.55;1.45;;;;;;;;;;7395844;19;20153;-91
2023/06/22 12:06:42;;;;;;;0.88;0.88;;;;;;;;;;7397575;19;20208;-92
2023/06/22 12:09:13;;;;;;;0.85;0.85;;;;;;;;;;7396132;19;20196;-93
2023/06/22 12:11:40;;;;;;;1.67;1.52;;;;;;;;;;7394623;19;20145;-93
2023/06/22 12:14:10;;;;;;;0.80;0.80;;;;;;;;;;7396511;19;20212;-92
2023/06/22 12:16:37;;;;;;;0.95;0.95;;;;;;;;;;7392793;19;20545;-93
2023/06/22 12:19:04;;;;;;;1.60;1.48;;;;;;;;;;7394956;19;20211;-93
2023/06/22 12:21:33;;;;;;;2.65;1.48;;;;;;;;;;7403749;19;20548;-92
2023/06/22 12:24:00;;;;;;;2.05;1.30;;;;;;;;;;7405025;19;20153;-92
2023/06/22 12:26:27;;;;;;;1.83;1.73;;;;;;;;;;7407980;19;20140;-92
2023/06/22 12:28:53;;;;;;;0.93;0.88;;;;;;;;;;7412883;19;20188;-93
2023/06/22 12:31:20;;;;;;;1.42;1.33;;;;;;;;;;7401748;19;20220;-93
2023/06/22 12:33:47;;;;;;;1.58;1.48;;;;;;;;;;7419244;19;20189;-92
2023/06/22 12:36:14;;;;;;;4.68;1.17;;;;;;;;;;7434280;19;20126;-92
2023/06/22 12:38:40;;;;;;;1.05;1.05;;;;;;;;;;7429014;19;20137;-93
2023/06/22 12:41:07;;;;;;;0.90;0.90;;;;;;;;;;7407462;19;20217;-92
2023/06/22 12:43:34;;;;;;;0.93;0.93;;;;;;;;;;7400704;19;20640;-92
2023/06/22 12:46:00;;;;;;;1.00;0.90;;;;;;;;;;7400335;19;20139;-92
2023/06/22 12:48:27;;;;;;;2.60;1.38;;;;;;;;;;7398958;19;20645;-92
2023/06/22 12:50:54;;;;;;;1.48;1.38;;;;;;;;;;7401648;19;20154;-90
2023/06/22 12:53:23;;;;;;;3.08;1.85;;;;;;;;;;7400310;19;20560;-92
2023/06/22 12:55:50;;;;;;;1.25;1.25;;;;;;;;;;7401839;19;20142;-92
2023/06/22 12:58:17;;;;;;;0.77;0.77;;;;;;;;;;7412000;19;20137;-92
2023/06/22 13:00:43;;;;;;;3.38;1.85;;;;;;;;;;7431098;19;20177;-92
2023/06/22 13:03:10;;;;;;;1.38;1.30;;;;;;;;;;7431835;19;20145;-91
2023/06/22 13:05:38;;;;;;;1.05;1.05;;;;;;;;;;7428456;19;20137;-92
2023/06/22 13:08:05;;;;;;;1.10;1.10;;;;;;;;;;7407208;19;20141;-92
2023/06/22 13:10:31;;;;;;;2.05;1.85;;;;;;;;;;7400880;19;20160;-92
2023/06/22 13:13:00;;;;;;;1.55;1.42;;;;;;;;;;7406636;19;20152;-92
2023/06/22 13:15:28;;;;;;;1.15;1.15;;;;;;;;;;7402184;19;20177;-91
2023/06/22 13:17:56;;;;;;;1.48;1.38;;;;;;;;;;7404166;19;20145;-92
2023/06/22 13:20:22;;;;;;;1.17;1.00;;;;;;;;;;7415002;19;20145;-92
2023/06/22 13:22:50;;;;;;;1.27;1.27;;;;;;;;;;7406663;19;20196;-91
2023/06/22 13:25:19;;;;;;;0.85;0.85;;;;;;;;;;7405495;19;20154;-91
2023/06/22 13:27:46;;;;;;;1.42;1.33;;;;;;;;;;7410857;19;20141;-93
2023/06/22 13:30:13;;;;;;;1.13;1.10;;;;;;;;;;7404447;19;20140;-93
2023/06/22 13:32:41;;;;;;;0.93;0.93;;;;;;;;;;7404089;19;20153;-91
2023/06/22 13:35:09;;;;;;;1.10;1.00;;;;;;;;;;7410418;19;20133;-92
2023/06/22 13:37:37;;;;;;;1.63;1.52;;;;;;;;;;7404223;19;20141;-92
2023/06/22 13:40:06;;;;;;;1.27;1.23;;;;;;;;;;7403751;19;20128;-92
2023/06/22 13:42:33;;;;;;;0.90;0.90;;;;;;;;;;7402114;19;20213;-91
2023/06/22 13:44:59;;;;;;;1.02;1.02;;;;;;;;;;7396763;19;20153;-92
2023/06/22 13:47:30;;;;;;;0.90;0.90;;;;;;;;;;7401568;19;20149;-92
2023/06/22 13:49:58;;;;;;;0.90;0.90;;;;;;;;;;7399999;19;20482;-92
2023/06/22 13:52:24;;;;;;;1.90;0.73;;;;;;;;;;7397288;19;20498;-92
2023/06/22 13:55:36;;;;;;;1.05;1.05;;;;;;;;;;7396392;19;20160;-91
2023/06/22 13:58:24;;;;;;;0.95;0.95;;;;;;;;;;7390452;19;20167;-91
2023/06/22 14:01:09;;;;;;;1.45;1.35;;;;;;;;;;7397981;19;20863;-91
2023/06/22 14:04:13;;;;;;;0.95;0.95;;;;;;;;;;7401880;19;20224;-92
2023/06/22 14:06:44;;;;;;;0.82;0.82;;;;;;;;;;7401521;19;20145;-90
2023/06/22 14:09:23;;;;;;;1.23;1.13;;;;;;;;;;7399043;19;20553;-92
2023/06/22 14:11:50;;;;;;;1.67;1.52;;;;;;;;;;7398739;19;20162;-91
2023/06/22 14:15:08;;;;;;;1.23;1.10;;;;;;;;;;7397742;19;20157;-92
2023/06/22 14:19:17;;;;;;;0.65;0.65;;;;;;;;;;7393681;19;20584;-92
2023/06/22 14:22:34;;;;;;;4.10;1.45;;;;;;;;;;7389730;19;20232;-92
2023/06/22 14:25:37;;;;;;;1.20;1.15;;;;;;;;;;7396257;19;20193;-90
2023/06/22 14:28:41;;;;;;;1.73;1.35;;;;;;;;;;7395787;19;20164;-92
2023/06/22 14:32:30;;;;;;;1.38;0.90;;;;;;;;;;7394792;19;20161;-90
2023/06/22 14:35:06;;;;;;;1.38;0.70;;;;;;;;;;7390114;19;20202;-91
2023/06/22 14:37:43;;;;;;;0.95;0.95;;;;;;;;;;7395649;19;20132;-91
2023/06/22 14:40:16;;;;;;;1.27;1.25;;;;;;;;;;7393812;19;20137;-91
2023/06/22 14:42:59;;;;;;;0.75;0.75;;;;;;;;;;7394281;19;20149;-91
2023/06/22 14:45:26;;;;;;;0.95;0.95;;;;;;;;;;7393822;19;20160;-90
2023/06/22 14:47:53;;;;;;;5.70;1.33;;;;;;;;;;7390890;19;20133;-91
2023/06/22 14:50:23;;;;;;;0.85;0.85;;;;;;;;;;7392486;19;20172;-89
2023/06/22 14:52:49;;;;;;;1.15;1.15;;;;;;;;;;7392896;19;20144;-89
2023/06/22 14:55:16;;;;;;;1.30;1.05;;;;;;;;;;7402325;19;20828;-90
2023/06/22 14:57:43;;;;;;;1.63;1.52;;;;;;;;;;7397789;19;20159;-89
2023/06/22 15:00:10;;;;;;;2.05;1.20;;;;;;;;;;7397740;19;20495;-89
2023/06/22 15:02:37;;;;;;;2.22;1.48;;;;;;;;;;7397444;19;20188;-89
2023/06/22 15:05:04;;;;;;;1.70;1.08;;;;;;;;;;7398580;19;20176;-89
2023/06/22 15:07:30;;;;;;;1.13;1.02;;;;;;;;;;7403966;19;20621;-89
2023/06/22 15:09:57;;;;;;;1.70;1.55;;;;;;;;;;7401066;19;20236;-90
2023/06/22 15:12:24;;;;;;;1.15;1.13;;;;;;;;;;7401298;19;20137;-91
2023/06/22 15:14:51;;;;;;;0.77;0.77;;;;;;;;;;7402661;19;20176;-90
2023/06/22 15:17:18;;;;;;;2.25;1.35;;;;;;;;;;7401178;19;20503;-90
2023/06/22 15:19:44;;;;;;;1.35;1.35;;;;;;;;;;7397571;19;20145;-91
2023/06/22 15:22:11;;;;;;;2.00;1.65;;;;;;;;;;7402430;19;20129;-90
2023/06/22 15:24:38;;;;;;;1.58;1.48;;;;;;;;;;7407519;19;20153;-90
2023/06/22 15:27:05;;;;;;;0.82;0.82;;;;;;;;;;7408933;19;20548;-90
2023/06/22 15:29:33;;;;;;;1.80;1.45;;;;;;;;;;7396982;19;20196;-91
2023/06/22 15:32:01;;;;;;;1.50;0.82;;;;;;;;;;7395627;19;20208;-91
2023/06/22 15:34:28;;;;;;;0.93;0.93;;;;;;;;;;7395058;19;20160;-91
2023/06/22 15:36:55;;;;;;;0.90;0.90;;;;;;;;;;7395248;19;20141;-91
2023/06/22 15:39:23;;;;;;;0.70;0.70;;;;;;;;;;7394086;19;20140;-90
2023/06/22 15:41:49;;;;;;;1.23;1.17;;;;;;;;;;7393848;19;20220;-92
2023/06/22 15:44:16;;;;;;;1.15;1.05;;;;;;;;;;7391883;19;20566;-91
2023/06/22 15:46:46;;;;;;;1.17;1.08;;;;;;;;;;7394349;19;20622;-91
2023/06/22 15:49:13;;;;;;;0.93;0.93;;;;;;;;;;7394653;19;20138;-91
2023/06/22 15:51:45;;;;;;;0.90;0.90;;;;;;;;;;7393920;19;20149;-91
2023/06/22 15:54:12;;;;;;;0.70;0.70;;;;;;;;;;7393768;19;20176;-91
2023/06/22 15:56:39;;;;;;;1.63;1.55;;;;;;;;;;7395495;19;20148;-91
2023/06/22 15:59:06;;;;;;;0.73;0.73;;;;;;;;;;7393444;19;20141;-92
2023/06/22 16:01:32;;;;;;;1.42;1.27;;;;;;;;;;7404274;19;20640;-90
2023/06/22 16:03:59;;;;;;;0.45;0.45;;;;;;;;;;7406416;19;20715;-89
2023/06/22 16:06:26;;;;;;;1.70;1.60;;;;;;;;;;7405600;19;20504;-90
2023/06/22 16:08:53;;;;;;;0.85;0.85;;;;;;;;;;7405432;19;20213;-88
2023/06/22 16:11:19;;;;;;;2.72;1.80;;;;;;;;;;7405880;19;20551;-91
2023/06/22 16:13:46;;;;;;;0.80;0.80;;;;;;;;;;7404254;19;20156;-90
2023/06/22 16:16:15;;;;;;;1.73;1.63;;;;;;;;;;7404518;19;20137;-90
2023/06/22 16:18:52;;;;;;;1.60;1.48;;;;;;;;;;7400314;19;20136;-92
2023/06/22 16:21:19;;;;;;;1.27;1.17;;;;;;;;;;7405816;19;20150;-91
2023/06/22 16:23:45;;;;;;;2.38;1.45;;;;;;;;;;7402745;19;20157;-91
2023/06/22 16:26:12;;;;;;;2.05;0.82;;;;;;;;;;7398386;19;20144;-91
2023/06/22 16:28:39;;;;;;;0.95;0.95;;;;;;;;;;7397295;19;20137;-89
2023/06/22 16:31:06;;;;;;;1.10;1.10;;;;;;;;;;7399222;19;20136;-90
2023/06/22 16:33:32;;;;;;;0.70;0.70;;;;;;;;;;7403861;19;20653;-90
2023/06/22 16:36:00;;;;;;;1.10;0.98;;;;;;;;;;7408427;19;20125;-90
2023/06/22 16:38:26;;;;;;;1.13;1.05;;;;;;;;;;7403640;19;20145;-86
2023/06/22 16:40:54;;;;;;;1.13;0.77;;;;;;;;;;7409637;19;20163;-88
2023/06/22 18:13:07;;;;;;;0.35;0.35;;;;;;;;;;7405646;19;20150;-91
2023/06/22 18:15:55;;;;;;;0.85;0.85;;;;;;;;;;7403666;19;20153;-87
2023/06/22 18:18:36;;;;;;;2.40;0.75;;;;;;;;;;7401431;19;20220;-88
2023/06/22 18:21:04;;;;;;;0.43;0.43;;;;;;;;;;7401306;19;20204;-89
2023/06/22 18:23:36;;;;;;;0.52;0.52;;;;;;;;;;7401506;19;20152;-90
2023/06/22 18:26:04;;;;;;;1.27;0.88;;;;;;;;;;7404690;19;21362;-89
2023/06/22 18:28:46;;;;;;;0.40;0.40;;;;;;;;;;7399579;19;20184;-91
2023/06/22 18:31:15;;;;;;;0.40;0.40;;;;;;;;;;7402401;19;20594;-92
2023/06/22 18:33:57;;;;;;;0.90;0.90;;;;;;;;;;7399648;19;20153;-91
2023/06/22 18:36:30;;;;;;;0.80;0.80;;;;;;;;;;7401584;19;20168;-90
2023/06/22 18:39:01;;;;;;;0.55;0.55;;;;;;;;;;7400696;19;20133;-90
2023/06/22 18:41:41;;;;;;;0.52;0.52;;;;;;;;;;7401491;19;20141;-87
2023/06/22 18:44:40;;;;;;;0.50;0.50;;;;;;;;;;7402991;19;20157;-93
2023/06/22 18:47:41;;;;;;;0.77;0.77;;;;;;;;;;7397382;19;20633;-89
2023/06/22 18:50:17;;;;;;;1.05;0.90;;;;;;;;;;7401397;19;20151;-92
2023/06/22 18:53:03;;;;;;;0.65;0.65;;;;;;;;;;7398699;19;20216;-92
2023/06/22 18:55:33;;;;;;;0.52;0.52;;;;;;;;;;7400793;19;20161;-90
2023/06/22 18:58:19;;;;;;;3.30;0.73;;;;;;;;;;7399786;19;20148;-91
2023/06/22 19:00:46;;;;;;;0.40;0.40;;;;;;;;;;7398564;19;20182;-88
2023/06/22 19:03:28;;;;;;;0.50;0.50;;;;;;;;;;7398991;19;20161;-91
2023/06/22 19:05:55;;;;;;;0.47;0.47;;;;;;;;;;7397861;19;20141;-92
2023/06/22 19:08:24;;;;;;;0.50;0.50;;;;;;;;;;7392040;19;20133;-92